createdAt,value
2022-09-27T00:00:27.286Z,1.60
2022-09-27T00:00:59.905Z,1.30
2022-09-27T00:01:32.769Z,1.30
2022-09-27T00:02:04.746Z,1.70
2022-09-27T00:02:36.674Z,1.33
2022-09-27T00:03:09.618Z,1.60
2022-09-27T00:03:41.888Z,1.45
2022-09-27T00:04:13.913Z,1.58
2022-09-27T00:04:46.742Z,1.48
2022-09-27T00:05:19.105Z,1.48
2022-09-27T00:06:02.399Z,1.40
2022-09-27T00:06:39.941Z,1.27
2022-09-27T00:07:12.791Z,1.58
2022-09-27T00:07:45.616Z,1.50
2022-09-27T00:08:20.011Z,1.40
2022-09-27T00:08:52.165Z,1.60
2022-09-27T00:09:25.368Z,1.60
2022-09-27T00:09:58.203Z,1.77
2022-09-27T00:10:30.347Z,1.52
2022-09-27T00:11:03.688Z,1.60
2022-09-27T00:11:39.021Z,1.40
2022-09-27T00:12:10.969Z,1.23
2022-09-27T00:12:43.141Z,1.45
2022-09-27T00:13:15.966Z,1.73
2022-09-27T00:13:47.829Z,1.85
2022-09-27T00:14:20.726Z,1.38
2022-09-27T00:14:52.857Z,1.60
2022-09-27T00:15:24.755Z,1.60
2022-09-27T00:15:59.120Z,1.40
2022-09-27T00:16:33.318Z,1.20
2022-09-27T00:17:05.430Z,1.60
2022-09-27T00:17:38.509Z,1.83
2022-09-27T00:18:10.392Z,1.70
2022-09-27T00:18:42.527Z,2.05
2022-09-27T00:19:17.134Z,1.55
2022-09-27T00:19:49.220Z,1.35
2022-09-27T00:20:21.241Z,2.17
2022-09-27T00:20:54.201Z,1.45
2022-09-27T00:21:26.329Z,1.50
2022-09-27T00:21:58.308Z,1.42
2022-09-27T00:22:31.340Z,1.52
2022-09-27T00:23:03.234Z,1.85
2022-09-27T00:23:35.196Z,1.70
2022-09-27T00:24:08.158Z,1.60
2022-09-27T00:24:41.368Z,1.40
2022-09-27T00:25:13.209Z,1.65
2022-09-27T00:25:56.669Z,1.80
2022-09-27T00:26:29.267Z,1.63
2022-09-27T00:27:01.130Z,1.63
2022-09-27T00:27:34.402Z,1.88
2022-09-27T00:28:06.286Z,1.70
2022-09-27T00:28:38.554Z,1.60
2022-09-27T00:29:11.850Z,1.83
2022-09-27T00:29:43.810Z,1.20
2022-09-27T00:30:15.817Z,1.75
2022-09-27T00:30:48.657Z,1.75
2022-09-27T00:31:22.707Z,1.73
2022-09-27T00:31:55.464Z,1.38
2022-09-27T00:32:28.292Z,1.50
2022-09-27T00:33:00.294Z,1.70
2022-09-27T00:33:32.253Z,1.70
2022-09-27T00:34:06.481Z,1.35
2022-09-27T00:34:39.901Z,1.75
2022-09-27T00:35:12.016Z,1.40
2022-09-27T00:35:44.995Z,2.00
2022-09-27T00:36:17.516Z,1.58
2022-09-27T00:36:49.769Z,1.75
2022-09-27T00:37:22.602Z,1.45
2022-09-27T00:37:54.449Z,1.77
2022-09-27T00:38:26.286Z,1.55
2022-09-27T00:38:59.946Z,1.52
2022-09-27T00:39:31.837Z,1.63
2022-09-27T00:40:06.102Z,1.30
2022-09-27T00:40:38.131Z,1.70
2022-09-27T00:41:16.786Z,1.58
2022-09-27T00:41:48.689Z,1.85
2022-09-27T00:42:20.605Z,1.60
2022-09-27T00:42:53.485Z,1.80
2022-09-27T00:43:25.367Z,1.63
2022-09-27T00:43:58.805Z,1.52
2022-09-27T00:45:06.809Z,1.75
2022-09-27T00:45:38.691Z,1.58
2022-09-27T00:46:12.197Z,1.45
2022-09-27T00:46:49.395Z,2.00
2022-09-27T00:47:26.948Z,1.90
2022-09-27T00:48:02.009Z,1.50
2022-09-27T00:48:37.310Z,2.25
2022-09-27T00:49:17.758Z,1.80
2022-09-27T00:49:55.640Z,1.70
2022-09-27T00:50:32.461Z,1.55
2022-09-27T00:51:06.989Z,1.70
2022-09-27T00:51:41.363Z,1.90
2022-09-27T00:52:18.485Z,1.70
2022-09-27T00:52:58.313Z,1.88
2022-09-27T00:53:35.041Z,1.92
2022-09-27T00:54:09.865Z,1.67
2022-09-27T00:54:46.238Z,1.60
2022-09-27T00:55:24.745Z,1.60
2022-09-27T00:56:00.657Z,1.80
2022-09-27T00:56:33.796Z,2.15
2022-09-27T00:57:06.901Z,1.80
2022-09-27T00:57:39.753Z,1.65
2022-09-27T00:58:13.561Z,1.90
2022-09-27T00:58:50.540Z,1.75
2022-09-27T00:59:26.657Z,1.83
2022-09-27T01:00:01.849Z,1.70
2022-09-27T01:00:34.968Z,1.92
2022-09-27T01:01:10.395Z,1.85
2022-09-27T01:01:42.641Z,1.65
2022-09-27T01:02:14.890Z,1.70
2022-09-27T01:02:51.382Z,1.70
2022-09-27T01:03:30.722Z,1.85
2022-09-27T01:04:08.694Z,1.80
2022-09-27T01:04:42.408Z,2.30
2022-09-27T01:05:16.376Z,2.35
2022-09-27T01:05:49.574Z,1.90
2022-09-27T01:06:22.494Z,1.52
2022-09-27T01:06:54.732Z,1.60
2022-09-27T01:07:27.589Z,1.90
2022-09-27T01:08:01.028Z,1.70
2022-09-27T01:08:33.137Z,2.05
2022-09-27T01:09:07.105Z,1.70
2022-09-27T01:09:39.292Z,1.70
2022-09-27T01:10:11.921Z,1.50
2022-09-27T01:10:55.790Z,2.30
2022-09-27T01:11:41.301Z,2.38
2022-09-27T01:12:36.244Z,2.05
2022-09-27T01:13:16.569Z,1.50
2022-09-27T01:14:05.207Z,1.83
2022-09-27T01:14:53.602Z,2.10
2022-09-27T01:15:33.778Z,1.95
2022-09-27T01:16:16.645Z,2.05
2022-09-27T01:17:00.108Z,1.60
2022-09-27T01:17:44.257Z,1.73
2022-09-27T01:18:26.495Z,2.00
2022-09-27T01:19:10.203Z,1.70
2022-09-27T01:20:16.758Z,1.60
2022-09-27T01:21:12.543Z,2.00
2022-09-27T01:21:51.404Z,1.55
2022-09-27T01:22:31.246Z,1.88
2022-09-27T01:23:28.856Z,2.00
2022-09-27T01:24:15.186Z,1.40
2022-09-27T01:25:04.179Z,1.92
2022-09-27T01:25:54.490Z,2.13
2022-09-27T01:26:46.302Z,1.40
2022-09-27T01:27:42.752Z,1.70
2022-09-27T01:28:24.409Z,2.42
2022-09-27T01:29:04.360Z,2.00
2022-09-27T01:29:49.970Z,1.60
2022-09-27T01:30:25.738Z,1.67
2022-09-27T01:31:05.768Z,2.15
2022-09-27T01:31:46.942Z,1.40
2022-09-27T01:32:28.364Z,1.85
2022-09-27T01:33:13.373Z,1.77
2022-09-27T01:33:55.606Z,1.77
2022-09-27T01:34:36.373Z,1.60
2022-09-27T01:35:18.522Z,1.73
2022-09-27T01:36:05.487Z,1.52
2022-09-27T01:36:46.812Z,1.95
2022-09-27T01:37:26.085Z,1.77
2022-09-27T01:38:11.266Z,2.10
2022-09-27T01:38:52.473Z,1.60
2022-09-27T01:39:34.693Z,1.65
2022-09-27T01:40:14.682Z,1.70
2022-09-27T01:40:55.651Z,1.63
2022-09-27T01:41:35.087Z,2.05
2022-09-27T01:42:19.811Z,1.73
2022-09-27T01:43:01.356Z,1.60
2022-09-27T01:43:39.198Z,1.75
2022-09-27T01:44:19.056Z,1.80
2022-09-27T01:44:54.397Z,1.83
2022-09-27T01:45:33.917Z,1.80
2022-09-27T01:46:12.125Z,1.85
2022-09-27T01:46:50.786Z,1.90
2022-09-27T01:47:28.226Z,1.65
2022-09-27T01:48:02.759Z,1.90
2022-09-27T01:48:40.394Z,1.70
2022-09-27T01:49:17.158Z,1.88
2022-09-27T01:49:54.990Z,1.98
2022-09-27T01:50:34.016Z,2.05
2022-09-27T01:51:09.837Z,2.38
2022-09-27T01:51:45.537Z,2.15
2022-09-27T01:52:23.746Z,2.47
2022-09-27T01:52:59.987Z,1.65
2022-09-27T01:53:36.842Z,2.00
2022-09-27T01:54:12.309Z,1.73
2022-09-27T01:54:47.376Z,2.50
2022-09-27T01:55:25.242Z,1.80
2022-09-27T01:55:57.817Z,2.13
2022-09-27T01:56:34.313Z,2.35
2022-09-27T01:57:10.605Z,2.20
2022-09-27T01:57:50.049Z,2.33
2022-09-27T01:58:28.852Z,2.30
2022-09-27T01:59:10.370Z,2.67
2022-09-27T01:59:47.542Z,2.30
2022-09-27T02:00:19.514Z,1.83
2022-09-27T02:00:55.409Z,2.33
2022-09-27T02:01:32.382Z,2.53
2022-09-27T02:02:09.114Z,2.63
2022-09-27T02:02:46.978Z,2.20
2022-09-27T02:03:21.657Z,2.28
2022-09-27T02:03:57.361Z,3.30
2022-09-27T02:04:33.437Z,2.25
2022-09-27T02:05:09.826Z,2.65
2022-09-27T02:05:47.865Z,2.00
2022-09-27T02:06:23.875Z,2.80
2022-09-27T02:07:02.228Z,2.13
2022-09-27T02:07:41.090Z,2.53
2022-09-27T02:08:21.643Z,2.65
2022-09-27T02:08:59.400Z,2.83
2022-09-27T02:09:36.734Z,2.80
2022-09-27T02:10:12.955Z,2.30
2022-09-27T02:10:47.976Z,2.42
2022-09-27T02:11:20.088Z,2.42
2022-09-27T02:11:56.977Z,2.50
2022-09-27T02:12:34.186Z,2.85
2022-09-27T02:13:15.755Z,2.50
2022-09-27T02:13:53.377Z,2.10
2022-09-27T02:14:32.116Z,2.50
2022-09-27T02:15:09.649Z,2.17
2022-09-27T02:15:52.076Z,2.38
2022-09-27T02:16:39.453Z,2.50
2022-09-27T02:17:21.673Z,2.20
2022-09-27T02:17:58.226Z,2.40
2022-09-27T02:18:36.190Z,2.45
2022-09-27T02:19:12.784Z,2.30
2022-09-27T02:19:54.013Z,2.35
2022-09-27T02:20:32.540Z,2.40
2022-09-27T02:21:09.637Z,1.88
2022-09-27T02:21:47.898Z,2.45
2022-09-27T02:22:29.924Z,2.60
2022-09-27T02:23:11.093Z,2.60
2022-09-27T02:23:46.925Z,2.53
2022-09-27T02:24:25.702Z,2.42
2022-09-27T02:25:01.641Z,2.60
2022-09-27T02:25:41.784Z,2.45
2022-09-27T02:26:19.469Z,3.28
2022-09-27T02:27:01.196Z,2.53
2022-09-27T02:27:36.106Z,2.95
2022-09-27T02:28:18.709Z,2.38
2022-09-27T02:28:57.697Z,2.90
2022-09-27T02:29:39.373Z,2.53
2022-09-27T02:30:13.416Z,2.63
2022-09-27T02:30:45.377Z,2.70
2022-09-27T02:31:18.304Z,2.63
2022-09-27T02:31:52.024Z,2.10
2022-09-27T02:32:23.901Z,2.45
2022-09-27T02:32:56.924Z,2.50
2022-09-27T02:33:34.467Z,2.85
2022-09-27T02:34:10.140Z,2.20
2022-09-27T02:34:45.850Z,2.35
2022-09-27T02:35:22.425Z,2.90
2022-09-27T02:35:54.302Z,2.50
2022-09-27T02:36:27.217Z,2.00
2022-09-27T02:36:59.778Z,2.22
2022-09-27T02:37:32.312Z,2.30
2022-09-27T02:38:07.672Z,2.67
2022-09-27T02:38:40.183Z,2.88
2022-09-27T02:39:12.244Z,2.00
2022-09-27T02:39:45.208Z,2.72
2022-09-27T02:40:17.569Z,2.35
2022-09-27T02:40:49.688Z,2.30
2022-09-27T02:41:23.930Z,3.22
2022-09-27T02:41:58.240Z,2.20
2022-09-27T02:42:31.069Z,2.72
2022-09-27T02:43:07.105Z,2.67
2022-09-27T02:43:38.964Z,2.10
2022-09-27T02:44:13.629Z,2.60
2022-09-27T02:44:46.756Z,2.70
2022-09-27T02:45:19.842Z,3.08
2022-09-27T02:46:06.027Z,2.70
2022-09-27T02:47:04.847Z,2.85
2022-09-27T02:48:03.927Z,2.55
2022-09-27T02:48:45.214Z,2.55
2022-09-27T02:49:31.467Z,2.65
2022-09-27T02:50:30.256Z,2.13
2022-09-27T02:51:18.797Z,2.33
2022-09-27T02:51:59.547Z,2.10
2022-09-27T02:52:43.294Z,2.25
2022-09-27T02:53:27.010Z,2.47
2022-09-27T02:54:12.092Z,2.50
2022-09-27T02:54:58.002Z,2.72
2022-09-27T02:55:42.686Z,2.25
2022-09-27T02:56:21.342Z,2.90
2022-09-27T02:57:04.059Z,2.80
2022-09-27T02:57:46.401Z,2.60
2022-09-27T02:58:29.422Z,2.17
2022-09-27T02:59:07.638Z,2.33
2022-09-27T02:59:50.107Z,2.20
2022-09-27T03:00:27.146Z,2.38
2022-09-27T03:01:06.246Z,2.88
2022-09-27T03:01:49.570Z,2.70
2022-09-27T03:02:32.678Z,2.70
2022-09-27T03:03:11.643Z,2.63
2022-09-27T03:03:49.686Z,2.50
2022-09-27T03:04:29.054Z,2.58
2022-09-27T03:05:05.951Z,3.53
2022-09-27T03:05:41.619Z,2.83
2022-09-27T03:06:16.952Z,2.70
2022-09-27T03:06:51.157Z,2.90
2022-09-27T03:07:23.495Z,2.35
2022-09-27T03:07:55.382Z,2.42
2022-09-27T03:08:27.351Z,2.45
2022-09-27T03:09:00.201Z,2.45
2022-09-27T03:09:42.227Z,2.33
2022-09-27T03:10:18.518Z,2.40
2022-09-27T03:10:51.795Z,2.60
2022-09-27T03:11:23.848Z,2.45
2022-09-27T03:11:55.839Z,2.63
2022-09-27T03:12:28.677Z,2.90
2022-09-27T03:13:00.651Z,2.45
2022-09-27T03:13:41.895Z,2.60
2022-09-27T03:14:27.363Z,2.40
2022-09-27T03:15:00.354Z,2.15
2022-09-27T03:15:32.745Z,2.30
2022-09-27T03:16:06.000Z,2.40
2022-09-27T03:16:38.021Z,1.90
2022-09-27T03:17:10.008Z,2.70
2022-09-27T03:17:44.288Z,2.00
2022-09-27T03:18:16.178Z,2.42
2022-09-27T03:18:48.017Z,2.75
2022-09-27T03:19:20.853Z,2.30
2022-09-27T03:19:52.868Z,2.47
2022-09-27T03:20:24.817Z,2.75
2022-09-27T03:20:57.649Z,3.55
2022-09-27T03:21:29.526Z,2.55
2022-09-27T03:22:01.454Z,2.05
2022-09-27T03:22:35.329Z,2.40
2022-09-27T03:23:07.186Z,2.28
2022-09-27T03:23:39.039Z,2.15
2022-09-27T03:24:11.969Z,2.65
2022-09-27T03:24:44.330Z,2.30
2022-09-27T03:25:16.387Z,2.40
2022-09-27T03:25:49.663Z,2.50
2022-09-27T03:26:21.508Z,2.60
2022-09-27T03:26:53.370Z,2.40
2022-09-27T03:27:26.261Z,2.30
2022-09-27T03:27:58.109Z,2.10
2022-09-27T03:28:29.978Z,2.70
2022-09-27T03:29:02.878Z,3.03
2022-09-27T03:29:34.895Z,2.65
2022-09-27T03:30:07.700Z,2.72
2022-09-27T03:30:42.027Z,2.40
2022-09-27T03:31:14.745Z,3.17
2022-09-27T03:31:46.768Z,2.30
2022-09-27T03:32:19.754Z,2.20
2022-09-27T03:32:52.951Z,2.97
2022-09-27T03:33:24.797Z,2.00
2022-09-27T03:33:57.695Z,2.40
2022-09-27T03:34:29.747Z,2.75
2022-09-27T03:35:01.599Z,2.30
2022-09-27T03:35:34.420Z,2.90
2022-09-27T03:36:06.964Z,2.58
2022-09-27T03:36:39.818Z,2.90
2022-09-27T03:37:11.657Z,2.10
2022-09-27T03:37:43.517Z,2.10
2022-09-27T03:38:16.543Z,2.42
2022-09-27T03:38:48.387Z,2.30
2022-09-27T03:39:20.238Z,2.55
2022-09-27T03:39:53.163Z,2.40
2022-09-27T03:40:25.206Z,2.22
2022-09-27T03:40:57.210Z,2.60
2022-09-27T03:41:30.068Z,1.80
2022-09-27T03:42:01.948Z,3.15
2022-09-27T03:42:33.893Z,2.25
2022-09-27T03:43:06.763Z,2.58
2022-09-27T03:43:38.992Z,2.50
2022-09-27T03:44:10.834Z,2.45
2022-09-27T03:44:44.037Z,2.05
2022-09-27T03:45:15.965Z,2.53
2022-09-27T03:45:47.892Z,2.35
2022-09-27T03:46:20.842Z,2.65
2022-09-27T03:46:52.811Z,2.50
2022-09-27T03:47:24.663Z,2.45
2022-09-27T03:47:58.854Z,2.47
2022-09-27T03:48:31.155Z,2.65
2022-09-27T03:49:03.053Z,2.33
2022-09-27T03:49:35.886Z,3.35
2022-09-27T03:50:09.008Z,2.50
2022-09-27T03:50:40.894Z,2.55
2022-09-27T03:51:13.700Z,2.45
2022-09-27T03:51:45.531Z,2.42
2022-09-27T03:52:18.380Z,2.45
2022-09-27T03:52:51.199Z,2.47
2022-09-27T03:53:23.081Z,2.80
2022-09-27T03:53:54.933Z,2.60
2022-09-27T03:54:27.804Z,2.13
2022-09-27T03:55:02.105Z,2.40
2022-09-27T03:55:35.255Z,2.28
2022-09-27T03:56:07.231Z,2.20
2022-09-27T03:56:40.043Z,2.55
2022-09-27T03:57:11.918Z,2.50
2022-09-27T03:57:45.704Z,2.20
2022-09-27T03:58:18.549Z,2.95
2022-09-27T03:58:50.422Z,3.00
2022-09-27T03:59:22.345Z,2.22
2022-09-27T03:59:55.202Z,2.67
2022-09-27T04:00:27.271Z,2.80
2022-09-27T04:00:59.155Z,2.47
2022-09-27T04:01:32.136Z,2.45
2022-09-27T04:02:04.110Z,2.50
2022-09-27T04:02:36.083Z,2.30
2022-09-27T04:03:09.552Z,2.85
2022-09-27T04:03:42.929Z,2.55
2022-09-27T04:04:14.850Z,2.53
2022-09-27T04:04:46.729Z,2.70
2022-09-27T04:05:19.954Z,3.10
2022-09-27T04:05:51.801Z,2.17
2022-09-27T04:06:23.931Z,2.67
2022-09-27T04:06:57.034Z,2.75
2022-09-27T04:07:29.895Z,2.58
2022-09-27T04:08:02.273Z,2.80
2022-09-27T04:08:35.173Z,2.83
2022-09-27T04:09:07.029Z,2.60
2022-09-27T04:09:42.506Z,2.85
2022-09-27T04:10:17.750Z,2.28
2022-09-27T04:10:49.601Z,2.30
2022-09-27T04:11:23.041Z,2.83
2022-09-27T04:11:56.057Z,2.45
2022-09-27T04:12:27.921Z,2.85
2022-09-27T04:12:59.949Z,2.80
2022-09-27T04:13:32.752Z,2.35
2022-09-27T04:14:05.549Z,2.20
2022-09-27T04:14:38.397Z,2.97
2022-09-27T04:15:11.486Z,2.50
2022-09-27T04:15:44.456Z,2.90
2022-09-27T04:16:18.876Z,2.42
2022-09-27T04:16:50.766Z,2.50
2022-09-27T04:17:22.655Z,2.72
2022-09-27T04:17:55.466Z,3.03
2022-09-27T04:18:28.700Z,2.50
2022-09-27T04:19:01.514Z,2.72
2022-09-27T04:19:34.328Z,2.40
2022-09-27T04:20:07.081Z,2.92
2022-09-27T04:20:38.927Z,2.30
2022-09-27T04:21:11.942Z,3.05
2022-09-27T04:21:43.788Z,2.30
2022-09-27T04:22:15.696Z,2.92
2022-09-27T04:22:48.541Z,2.33
2022-09-27T04:23:20.687Z,2.58
2022-09-27T04:23:52.578Z,2.42
2022-09-27T04:24:25.558Z,2.70
2022-09-27T04:24:57.417Z,2.72
2022-09-27T04:25:29.313Z,2.40
2022-09-27T04:26:02.162Z,3.47
2022-09-27T04:26:34.126Z,2.42
2022-09-27T04:27:05.982Z,2.83
2022-09-27T04:27:38.836Z,3.05
2022-09-27T04:28:10.687Z,2.50
2022-09-27T04:28:42.539Z,2.35
2022-09-27T04:29:15.929Z,2.47
2022-09-27T04:29:47.839Z,2.35
2022-09-27T04:30:19.685Z,2.72
2022-09-27T04:30:52.600Z,2.45
2022-09-27T04:31:24.535Z,3.20
2022-09-27T04:31:56.445Z,2.50
2022-09-27T04:32:29.255Z,2.50
2022-09-27T04:33:01.098Z,2.28
2022-09-27T04:33:34.324Z,2.80
2022-09-27T04:34:07.238Z,2.40
2022-09-27T04:34:57.566Z,2.35
2022-09-27T04:35:48.040Z,2.72
2022-09-27T04:36:27.854Z,2.40
2022-09-27T04:37:00.221Z,2.10
2022-09-27T04:37:33.017Z,2.20
2022-09-27T04:38:05.121Z,2.90
2022-09-27T04:38:38.586Z,2.42
2022-09-27T04:39:11.445Z,2.70
2022-09-27T04:39:43.292Z,2.45
2022-09-27T04:40:17.017Z,2.50
2022-09-27T04:40:49.041Z,2.65
2022-09-27T04:41:21.628Z,2.45
2022-09-27T04:41:54.428Z,2.05
2022-09-27T04:42:28.700Z,2.45
2022-09-27T04:43:01.132Z,1.83
2022-09-27T04:43:33.961Z,2.10
2022-09-27T04:44:06.502Z,2.45
2022-09-27T04:44:38.350Z,2.30
2022-09-27T04:45:13.141Z,2.53
2022-09-27T04:45:45.747Z,2.35
2022-09-27T04:46:17.795Z,2.33
2022-09-27T04:46:50.772Z,3.00
2022-09-27T04:47:22.940Z,2.05
2022-09-27T04:47:54.830Z,2.38
2022-09-27T04:48:27.683Z,4.18
2022-09-27T04:49:01.323Z,2.72
2022-09-27T04:49:33.299Z,2.55
2022-09-27T04:50:06.961Z,2.53
2022-09-27T04:50:39.478Z,2.50
2022-09-27T04:51:11.572Z,2.65
2022-09-27T04:51:44.381Z,2.00
2022-09-27T04:52:16.228Z,2.63
2022-09-27T04:52:51.787Z,2.45
2022-09-27T04:53:24.671Z,3.17
2022-09-27T04:53:57.100Z,3.53
2022-09-27T04:54:30.118Z,3.90
2022-09-27T04:55:02.006Z,3.00
2022-09-27T04:55:34.111Z,3.50
2022-09-27T04:56:07.909Z,11.52
2022-09-27T04:56:39.760Z,3.70
2022-09-27T04:57:12.228Z,2.67
2022-09-27T04:57:44.073Z,2.88
2022-09-27T04:58:17.631Z,3.35
2022-09-27T04:58:49.555Z,2.85
2022-09-27T04:59:21.554Z,3.10
2022-09-27T04:59:54.359Z,3.40
2022-09-27T05:00:26.449Z,3.00
2022-09-27T05:00:58.295Z,2.50
2022-09-27T05:01:31.364Z,2.58
2022-09-27T05:02:03.313Z,3.20
2022-09-27T05:02:35.315Z,3.38
2022-09-27T05:03:07.534Z,3.10
2022-09-27T05:03:40.357Z,2.45
2022-09-27T05:04:13.613Z,2.50
2022-09-27T05:04:45.493Z,2.42
2022-09-27T05:05:18.518Z,2.53
2022-09-27T05:05:50.381Z,2.90
2022-09-27T05:06:22.257Z,2.50
2022-09-27T05:06:57.349Z,2.25
2022-09-27T05:07:29.656Z,2.40
2022-09-27T05:08:02.044Z,3.08
2022-09-27T05:08:34.939Z,3.30
2022-09-27T05:09:06.782Z,3.20
2022-09-27T05:09:38.650Z,2.58
2022-09-27T05:10:12.229Z,2.85
2022-09-27T05:10:44.216Z,3.30
2022-09-27T05:11:16.080Z,3.28
2022-09-27T05:11:49.064Z,2.70
2022-09-27T05:12:21.590Z,3.42
2022-09-27T05:12:53.426Z,2.60
2022-09-27T05:13:26.313Z,2.92
2022-09-27T05:13:58.162Z,2.38
2022-09-27T05:14:30.054Z,2.83
2022-09-27T05:15:03.105Z,2.60
2022-09-27T05:15:36.116Z,2.28
2022-09-27T05:16:08.538Z,2.80
2022-09-27T05:16:41.392Z,2.92
2022-09-27T05:17:13.669Z,3.13
2022-09-27T05:17:45.560Z,3.53
2022-09-27T05:18:17.992Z,2.42
2022-09-27T05:18:50.796Z,2.92
2022-09-27T05:19:24.146Z,2.60
2022-09-27T05:19:56.003Z,2.33
2022-09-27T05:20:28.891Z,3.05
2022-09-27T05:21:01.064Z,2.85
2022-09-27T05:21:32.918Z,2.47
2022-09-27T05:22:06.165Z,2.40
2022-09-27T05:22:39.919Z,2.50
2022-09-27T05:23:11.857Z,2.17
2022-09-27T05:23:47.292Z,2.10
2022-09-27T05:24:21.273Z,2.42
2022-09-27T05:24:53.290Z,2.40
2022-09-27T05:25:26.149Z,1.90
2022-09-27T05:25:58.037Z,2.10
2022-09-27T05:26:29.876Z,2.30
2022-09-27T05:27:03.151Z,2.10
2022-09-27T05:27:34.973Z,1.90
2022-09-27T05:28:07.151Z,2.17
2022-09-27T05:28:41.880Z,2.17
2022-09-27T05:29:13.716Z,2.22
2022-09-27T05:29:45.672Z,2.08
2022-09-27T05:30:19.023Z,2.00
2022-09-27T05:30:50.913Z,1.67
2022-09-27T05:31:23.044Z,1.75
2022-09-27T05:31:55.954Z,1.50
2022-09-27T05:32:28.358Z,1.42
2022-09-27T05:33:00.226Z,1.60
2022-09-27T05:33:34.227Z,1.45
2022-09-27T05:34:10.628Z,1.55
2022-09-27T05:34:43.834Z,1.88
2022-09-27T05:35:17.194Z,1.70
2022-09-27T05:35:53.214Z,1.52
2022-09-27T05:36:27.134Z,1.63
2022-09-27T05:36:59.236Z,1.55
2022-09-27T05:37:31.294Z,1.52
2022-09-27T05:38:04.155Z,1.17
2022-09-27T05:38:35.991Z,1.27
2022-09-27T05:39:08.026Z,1.30
2022-09-27T05:39:40.894Z,1.55
2022-09-27T05:40:36.555Z,1.30
2022-09-27T05:41:06.161Z,1.13
2022-09-27T05:41:38.141Z,1.15
2022-09-27T05:42:12.136Z,1.35
2022-09-27T05:42:45.006Z,1.05
2022-09-27T05:43:17.452Z,1.25
2022-09-27T05:43:49.416Z,1.65
2022-09-27T05:44:22.223Z,1.40
2022-09-27T05:44:54.075Z,1.70
2022-09-27T05:45:26.107Z,1.23
2022-09-27T05:45:58.977Z,1.30
2022-09-27T05:46:30.941Z,1.35
2022-09-27T05:47:04.126Z,1.50
2022-09-27T05:47:36.956Z,1.00
2022-09-27T05:48:09.122Z,1.40
2022-09-27T05:48:40.958Z,1.23
2022-09-27T05:49:13.821Z,1.90
2022-09-27T05:49:47.013Z,1.60
2022-09-27T05:50:18.877Z,1.00
2022-09-27T05:50:51.675Z,1.27
2022-09-27T05:51:23.613Z,1.17
2022-09-27T05:51:55.467Z,0.90
2022-09-27T05:52:28.596Z,1.30
2022-09-27T05:53:00.465Z,1.58
2022-09-27T05:53:33.345Z,1.05
2022-09-27T05:54:05.255Z,1.52
2022-09-27T05:54:37.185Z,0.90
2022-09-27T05:55:10.925Z,1.33
2022-09-27T05:55:43.041Z,1.63
2022-09-27T05:56:15.942Z,1.23
2022-09-27T05:56:47.804Z,0.95
2022-09-27T05:57:19.632Z,1.00
2022-09-27T05:57:57.451Z,0.90
2022-09-27T05:58:29.501Z,1.05
2022-09-27T05:59:01.358Z,1.20
2022-09-27T05:59:34.169Z,0.90
2022-09-27T06:00:07.325Z,1.02
2022-09-27T06:00:39.362Z,0.77
2022-09-27T06:01:12.349Z,1.02
2022-09-27T06:01:44.250Z,1.10
2022-09-27T06:02:16.154Z,1.55
2022-09-27T06:02:54.578Z,0.93
2022-09-27T06:03:26.501Z,1.00
2022-09-27T06:03:59.345Z,1.15
2022-09-27T06:04:31.335Z,1.10
2022-09-27T06:05:05.040Z,1.30
2022-09-27T06:05:39.927Z,0.70
2022-09-27T06:06:11.911Z,1.20
2022-09-27T06:06:44.498Z,1.23
2022-09-27T06:07:17.354Z,0.90
2022-09-27T06:07:49.712Z,1.13
2022-09-27T06:08:21.577Z,1.02
2022-09-27T06:08:54.459Z,0.82
2022-09-27T06:09:27.328Z,1.10
2022-09-27T06:09:59.159Z,1.10
2022-09-27T06:10:33.016Z,0.90
2022-09-27T06:11:06.650Z,1.00
2022-09-27T06:11:40.640Z,0.70
2022-09-27T06:12:16.436Z,0.90
2022-09-27T06:12:48.286Z,1.05
2022-09-27T06:13:20.157Z,1.13
2022-09-27T06:13:52.964Z,0.85
2022-09-27T06:14:24.861Z,1.08
2022-09-27T06:14:56.696Z,1.08
2022-09-27T06:15:29.933Z,3.25
2022-09-27T06:16:02.420Z,2.63
2022-09-27T06:16:34.342Z,1.30
2022-09-27T06:17:07.172Z,1.50
2022-09-27T06:17:39.052Z,1.20
2022-09-27T06:18:13.377Z,1.20
2022-09-27T06:18:46.216Z,1.23
2022-09-27T06:19:18.044Z,1.38
2022-09-27T06:19:49.896Z,1.05
2022-09-27T06:20:24.116Z,1.08
2022-09-27T06:20:56.026Z,1.25
2022-09-27T06:21:29.292Z,1.02
2022-09-27T06:22:01.133Z,0.95
2022-09-27T06:22:32.985Z,0.85
2022-09-27T06:23:10.233Z,0.82
2022-09-27T06:23:42.199Z,1.13
2022-09-27T06:24:14.081Z,1.10
2022-09-27T06:24:47.100Z,0.70
2022-09-27T06:25:19.046Z,1.92
2022-09-27T06:25:51.861Z,0.70
2022-09-27T06:26:26.901Z,0.88
2022-09-27T06:26:58.744Z,1.25
2022-09-27T06:27:30.741Z,1.10
2022-09-27T06:28:03.805Z,0.82
2022-09-27T06:28:35.713Z,1.05
2022-09-27T06:29:07.760Z,1.02
2022-09-27T06:29:40.570Z,2.35
2022-09-27T06:30:14.835Z,0.90
2022-09-27T06:30:51.666Z,0.98
2022-09-27T06:31:23.602Z,0.80
2022-09-27T06:31:56.754Z,1.05
2022-09-27T06:32:29.610Z,0.85
2022-09-27T06:33:02.677Z,0.85
2022-09-27T06:33:35.006Z,1.00
2022-09-27T06:34:08.193Z,0.90
2022-09-27T06:34:41.624Z,1.13
2022-09-27T06:35:13.638Z,1.00
2022-09-27T06:35:49.885Z,0.88
2022-09-27T06:36:21.756Z,0.90
2022-09-27T06:36:53.585Z,1.15
2022-09-27T06:37:27.397Z,1.10
2022-09-27T06:38:02.484Z,1.05
2022-09-27T06:38:34.954Z,0.73
2022-09-27T06:39:07.982Z,0.90
2022-09-27T06:39:39.875Z,0.80
2022-09-27T06:40:11.698Z,1.05
2022-09-27T06:40:46.344Z,0.70
2022-09-27T06:41:18.212Z,1.20
2022-09-27T06:41:57.668Z,1.00
2022-09-27T06:42:30.431Z,1.20
2022-09-27T06:43:03.549Z,1.17
2022-09-27T06:43:36.893Z,0.85
2022-09-27T06:44:08.722Z,1.00
2022-09-27T06:44:40.602Z,1.00
2022-09-27T06:45:13.720Z,0.95
2022-09-27T06:45:45.686Z,1.00
2022-09-27T06:46:17.599Z,1.10
2022-09-27T06:46:50.945Z,0.90
2022-09-27T06:47:23.795Z,1.15
2022-09-27T06:47:57.004Z,0.95
2022-09-27T06:48:29.993Z,0.90
2022-09-27T06:49:01.839Z,0.80
2022-09-27T06:49:34.636Z,1.00
2022-09-27T06:50:07.191Z,1.05
2022-09-27T06:50:41.101Z,0.60
2022-09-27T06:51:15.388Z,1.10
2022-09-27T06:51:47.269Z,0.90
2022-09-27T06:52:19.106Z,1.00
2022-09-27T06:52:51.978Z,1.20
2022-09-27T06:53:24.331Z,0.77
2022-09-27T06:53:56.269Z,0.90
2022-09-27T06:54:29.093Z,1.60
2022-09-27T06:55:01.404Z,0.75
2022-09-27T06:55:33.402Z,0.93
2022-09-27T06:56:09.442Z,1.60
2022-09-27T06:56:41.308Z,1.08
2022-09-27T06:57:34.003Z,1.35
2022-09-27T06:58:24.781Z,1.10
2022-09-27T06:59:15.084Z,1.20
2022-09-27T07:00:05.392Z,1.40
2022-09-27T07:00:38.199Z,0.95
2022-09-27T07:01:10.339Z,1.10
2022-09-27T07:01:43.535Z,1.15
2022-09-27T07:02:15.871Z,1.10
2022-09-27T07:02:47.766Z,1.70
2022-09-27T07:03:22.926Z,1.17
2022-09-27T07:03:54.910Z,1.30
2022-09-27T07:04:26.823Z,0.95
2022-09-27T07:04:59.898Z,1.17
2022-09-27T07:05:31.949Z,0.90
2022-09-27T07:06:06.128Z,1.20
2022-09-27T07:06:40.384Z,0.90
2022-09-27T07:07:12.769Z,1.05
2022-09-27T07:07:44.645Z,1.10
2022-09-27T07:08:17.460Z,1.25
2022-09-27T07:08:51.198Z,1.20
2022-09-27T07:09:24.171Z,0.90
2022-09-27T07:09:56.029Z,0.85
2022-09-27T07:10:30.149Z,1.30
2022-09-27T07:11:05.807Z,1.00
2022-09-27T07:11:37.653Z,1.02
2022-09-27T07:12:10.269Z,1.45
2022-09-27T07:12:44.433Z,1.30
2022-09-27T07:13:16.275Z,1.00
2022-09-27T07:13:49.868Z,1.33
2022-09-27T07:14:21.741Z,0.80
2022-09-27T07:14:53.956Z,1.10
2022-09-27T07:15:27.340Z,1.45
2022-09-27T07:15:59.326Z,1.00
2022-09-27T07:16:34.639Z,0.88
2022-09-27T07:17:06.490Z,1.25
2022-09-27T07:17:38.330Z,1.10
2022-09-27T07:18:11.157Z,0.82
2022-09-27T07:18:43.257Z,0.98
2022-09-27T07:19:18.206Z,1.27
2022-09-27T07:19:50.056Z,1.35
2022-09-27T07:20:21.894Z,1.67
2022-09-27T07:20:59.964Z,1.33
2022-09-27T07:21:33.107Z,1.90
2022-09-27T07:22:07.279Z,2.65
2022-09-27T07:22:41.493Z,1.30
2022-09-27T07:23:15.050Z,1.20
2022-09-27T07:23:48.440Z,1.10
2022-09-27T07:24:20.306Z,1.00
2022-09-27T07:24:52.148Z,1.30
2022-09-27T07:25:25.308Z,1.70
2022-09-27T07:26:04.126Z,1.50
2022-09-27T07:26:36.965Z,1.20
2022-09-27T07:27:08.837Z,1.25
2022-09-27T07:27:41.901Z,1.30
2022-09-27T07:28:21.577Z,1.10
2022-09-27T07:28:54.089Z,1.55
2022-09-27T07:29:26.913Z,1.30
2022-09-27T07:29:58.788Z,1.10
2022-09-27T07:30:30.965Z,2.42
2022-09-27T07:31:05.019Z,1.55
2022-09-27T07:31:37.602Z,1.77
2022-09-27T07:32:10.436Z,1.17
2022-09-27T07:32:43.385Z,1.23
2022-09-27T07:33:15.238Z,1.30
2022-09-27T07:33:48.152Z,1.05
2022-09-27T07:34:20.117Z,1.10
2022-09-27T07:34:51.979Z,1.08
2022-09-27T07:35:24.846Z,1.48
2022-09-27T07:35:57.004Z,1.30
2022-09-27T07:36:30.988Z,1.70
2022-09-27T07:37:03.259Z,1.30
2022-09-27T07:37:37.679Z,1.35
2022-09-27T07:38:13.269Z,1.50
2022-09-27T07:38:45.206Z,1.15
2022-09-27T07:39:17.225Z,1.20
2022-09-27T07:39:50.240Z,1.63
2022-09-27T07:40:22.498Z,1.50
2022-09-27T07:40:54.434Z,2.35
2022-09-27T07:41:27.314Z,1.05
2022-09-27T07:41:59.201Z,1.30